Search for airport 
image banner adimage banner ad
image banner ad

WMSA - Subang / Sultan Abdul Aziz Shah

Located in Subang, Malaysia

ICAO - WMSA, IATA - SZB

Data provided by Airmate  

General information

Coordinates: N3°7'56" E101°33'1"
Elevation is 89 feet MSL.
 
Rated:
View ratings: [VIEW]


View others Airports in Selangor

Operational data

Open for public use
Current time UTC:
Current local time:
Weather
METAR: WMSA 200900Z 25006KT 190V300 4000 HZ FEW018 SCT140 BKN270 33/26 Q1008
TAF: TAF WMSA 200500Z 2006/2106 17008KT 4000 HZ FEW018 PROB30 TEMPO 2006/2010 18010KT TSRA FEW017CB SCT018 BECMG 2012/2013 VRB02KT FEW026 BECMG 2100/2102 17005KT FEW018
View NOTAMs / SUP AIP / TFR affecting this airport [VIEW]
Communications frequencies: [VIEW]

Runways:

RWY identifierQFULength (ft)Width (ft)SurfaceLDA (ft)
15150°12408148ASP
33330°12408148

Airport contact information

Address: Subang Malaysia

Satellite view of WMSA